Time;durP1;ratioP1;P1;durP2;ratioP2;P2;SDS_P1;SDS_P2;PMS_P1;PMS_P2;Temp;Humidity;BMP_temperature;BMP_pressure;BME280_temperature;BME280_humidity;BME280_pressure;Samples;Min_cycle;Max_cycle;Signal;HPM_P1;HPM_P2
2021/12/22 00:02:27;;;;;;;34.58;16.30;;;3.30;99.90;;;;;;5049808;28;20056;-68
2021/12/22 00:04:56;;;;;;;34.65;16.30;;;3.30;99.90;;;;;;5089624;28;20044;-64
2021/12/22 00:07:24;;;;;;;29.48;15.60;;;3.30;99.90;;;;;;5091225;28;20052;-67
2021/12/22 00:09:52;;;;;;;35.92;17.73;;;3.30;99.90;;;;;;5064679;28;20050;-60
2021/12/22 00:12:19;;;;;;;34.97;16.23;;;3.40;99.90;;;;;;5050498;28;20049;-64
2021/12/22 00:14:49;;;;;;;39.13;18.10;;;3.30;99.90;;;;;;5086877;28;20052;-60
2021/12/22 00:17:16;;;;;;;32.80;16.90;;;3.40;99.90;;;;;;5090584;28;20059;-63
2021/12/22 00:19:50;;;;;;;32.45;16.08;;;3.30;99.90;;;;;;5090594;28;20035;-60
2021/12/22 00:22:19;;;;;;;32.65;16.98;;;3.30;99.90;;;;;;5090387;28;20510;-61
2021/12/22 00:24:46;;;;;;;37.83;17.75;;;3.30;99.90;;;;;;5065422;28;20045;-61
2021/12/22 00:27:14;;;;;;;37.78;18.55;;;3.20;99.90;;;;;;5048723;28;20504;-60
2021/12/22 00:29:46;;;;;;;36.97;18.17;;;3.20;99.90;;;;;;5087035;28;20039;-60
2021/12/22 00:32:16;;;;;;;37.00;19.00;;;3.20;99.90;;;;;;5088832;28;20411;-61
2021/12/22 00:34:48;;;;;;;39.15;17.83;;;3.20;99.90;;;;;;5089880;28;20044;-60
2021/12/22 00:37:21;;;;;;;41.05;17.40;;;3.10;99.90;;;;;;5090255;28;20067;-60
2021/12/22 00:39:50;;;;;;;40.85;19.25;;;3.00;99.90;;;;;;5066289;28;20049;-60
2021/12/22 00:42:22;;;;;;;34.78;18.35;;;3.00;99.90;;;;;;5049972;28;20396;-62
2021/12/22 00:44:53;;;;;;;38.28;19.58;;;3.00;99.90;;;;;;5085513;28;20059;-60
2021/12/22 00:47:27;;;;;;;38.40;18.50;;;2.90;99.90;;;;;;5089015;28;20130;-60
2021/12/22 00:49:56;;;;;;;38.25;18.27;;;2.90;99.90;;;;;;5089448;28;20055;-61
2021/12/22 00:52:24;;;;;;;38.30;17.13;;;3.00;99.90;;;;;;5089676;28;20044;-60
2021/12/22 00:54:52;;;;;;;39.78;18.83;;;2.90;99.90;;;;;;5072517;28;20049;-59
2021/12/22 00:57:23;;;;;;;40.85;18.15;;;2.90;99.90;;;;;;5049682;28;20045;-61
2021/12/22 00:59:51;;;;;;;39.45;18.75;;;2.90;99.90;;;;;;5086888;28;20055;-61
2021/12/22 01:02:20;;;;;;;38.20;18.05;;;2.90;99.90;;;;;;5087580;28;20052;-60
2021/12/22 01:04:51;;;;;;;39.83;20.05;;;2.80;99.90;;;;;;5084741;28;20055;-60
2021/12/22 01:07:19;;;;;;;43.50;19.25;;;2.80;99.90;;;;;;5088120;28;20043;-59
2021/12/22 01:09:47;;;;;;;38.60;18.90;;;2.70;99.90;;;;;;5069013;28;20056;-61
2021/12/22 01:12:15;;;;;;;45.67;19.25;;;2.70;99.90;;;;;;5049427;28;20048;-61
2021/12/22 01:14:46;;;;;;;42.15;19.80;;;2.60;99.90;;;;;;5084086;28;20051;-62
2021/12/22 01:17:16;;;;;;;40.40;19.80;;;2.60;99.90;;;;;;5089144;28;20052;-64
2021/12/22 01:19:52;;;;;;;;;;;2.60;99.90;;;;;;5088418;28;20044;-60
2021/12/22 01:22:37;;;;;;;48.78;21.15;;;2.50;99.90;;;;;;5072343;28;20386;-60
2021/12/22 01:25:07;;;;;;;45.05;21.65;;;2.40;99.90;;;;;;5058468;28;20059;-63
2021/12/22 01:27:40;;;;;;;48.92;22.15;;;2.40;99.90;;;;;;5067144;28;20040;-61
2021/12/22 01:30:29;;;;;;;46.38;20.90;;;2.30;99.90;;;;;;5089573;28;20036;-59
2021/12/22 01:33:00;;;;;;;48.10;21.40;;;2.30;99.90;;;;;;5088670;28;20518;-61
2021/12/22 01:35:31;;;;;;;52.15;23.52;;;2.20;99.90;;;;;;5089332;28;20047;-60
2021/12/22 01:37:59;;;;;;;52.60;22.60;;;2.20;99.90;;;;;;5089113;28;20407;-59
2021/12/22 01:40:31;;;;;;;41.63;21.83;;;2.20;99.90;;;;;;5061564;28;20045;-61
2021/12/22 01:43:01;;;;;;;55.97;22.65;;;2.10;99.90;;;;;;5054456;28;20059;-60
2021/12/22 01:51:08;;;;;;;47.83;21.48;;;2.00;99.90;;;;;;5088730;28;20138;-59
2021/12/22 01:53:44;;;;;;;52.78;21.45;;;1.90;99.90;;;;;;5070460;28;20040;-59
2021/12/22 01:56:25;;;;;;;47.75;21.63;;;2.00;99.90;;;;;;5050152;28;20041;-59
2021/12/22 01:58:56;;;;;;;53.83;23.50;;;1.90;99.90;;;;;;5070207;28;20510;-60
2021/12/22 02:01:25;;;;;;;52.78;21.25;;;1.90;99.90;;;;;;5088546;28;20044;-61
2021/12/22 02:03:54;;;;;;;50.97;22.02;;;1.90;99.90;;;;;;5087918;28;20055;-59
2021/12/22 02:06:23;;;;;;;52.38;22.02;;;1.90;99.90;;;;;;5088235;28;20048;-60
2021/12/22 02:08:52;;;;;;;55.20;22.83;;;1.90;99.90;;;;;;5088274;28;20048;-60
2021/12/22 02:11:21;;;;;;;56.10;24.60;;;1.90;99.90;;;;;;5049252;28;20290;-59
2021/12/22 02:13:58;;;;;;;56.90;24.05;;;1.90;99.90;;;;;;5066667;28;20055;-59
2021/12/22 02:16:29;;;;;;;63.78;24.15;;;1.90;99.90;;;;;;5088227;28;20383;-63
2021/12/22 02:18:58;;;;;;;57.35;23.77;;;1.90;99.90;;;;;;5088215;28;20048;-60
2021/12/22 02:21:29;;;;;;;60.58;24.95;;;1.90;99.90;;;;;;5088470;28;20039;-59
2021/12/22 02:23:59;;;;;;;60.25;25.98;;;1.90;99.90;;;;;;5088428;28;20070;-62
2021/12/22 02:29:18;;;;;;;58.75;26.05;;;1.80;99.90;;;;;;5073939;28;20055;-58
2021/12/22 02:32:08;;;;;;;60.92;24.90;;;1.80;99.90;;;;;;5066758;28;20041;-67
2021/12/22 02:34:45;;;;;;;54.83;24.13;;;1.80;99.90;;;;;;5051608;28;20037;-65
2021/12/22 02:37:17;;;;;;;61.42;23.20;;;1.80;99.90;;;;;;5051162;28;20045;-65
2021/12/22 02:40:08;;;;;;;55.15;24.20;;;1.70;99.90;;;;;;5078568;28;20080;-60
2021/12/22 02:42:37;;;;;;;55.53;22.85;;;1.70;99.90;;;;;;5050251;28;20041;-60
2021/12/22 02:45:17;;;;;;;60.85;24.15;;;1.70;99.90;;;;;;5051394;28;20060;-60
2021/12/22 02:47:47;;;;;;;52.08;23.45;;;1.70;99.90;;;;;;5066332;28;20468;-60
2021/12/22 02:50:16;;;;;;;55.28;24.25;;;1.70;99.90;;;;;;5050127;28;20056;-65
2021/12/22 02:53:20;;;;;;;66.07;24.42;;;1.60;99.90;;;;;;5051335;28;20049;-61
2021/12/22 02:58:17;;;;;;;;;;;1.60;99.90;;;;;;5051312;28;20052;-60
2021/12/22 03:02:03;;;;;;;58.80;23.77;;;1.50;99.90;;;;;;5051062;28;19921;-62
2021/12/22 03:03:59;;;;;;;61.03;23.52;;;1.50;99.90;;;;;;5050685;28;20523;-61
2021/12/22 03:06:36;;;;;;;56.97;24.13;;;1.50;99.90;;;;;;5050885;28;20044;-60
2021/12/22 03:09:23;;;;;;;58.08;25.10;;;1.50;99.90;;;;;;5066387;28;20037;-61
2021/12/22 03:11:53;;;;;;;57.47;23.00;;;1.40;99.90;;;;;;5051065;28;20496;-61
2021/12/22 03:14:22;;;;;;;61.33;24.48;;;1.40;99.90;;;;;;5049811;28;20053;-59
2021/12/22 03:16:51;;;;;;;64.32;24.20;;;1.30;99.90;;;;;;5052810;28;20045;-61
2021/12/22 03:19:22;;;;;;;63.43;24.77;;;1.30;99.90;;;;;;5054915;28;20053;-61
2021/12/22 03:21:58;;;;;;;63.17;23.75;;;1.30;99.90;;;;;;5055330;28;20045;-59
2021/12/22 03:24:27;;;;;;;60.70;24.60;;;1.30;99.90;;;;;;5054728;28;20295;-59
2021/12/22 03:26:59;;;;;;;;;;;1.30;99.90;;;;;;5054243;28;20045;-59
2021/12/22 03:29:27;;;;;;;59.60;22.92;;;1.20;99.90;;;;;;5054277;28;19928;-60
2021/12/22 03:31:55;;;;;;;62.38;23.98;;;1.20;99.90;;;;;;5054729;28;20037;-60
2021/12/22 03:34:25;;;;;;;62.10;24.42;;;1.10;99.90;;;;;;5054654;28;20064;-59
2021/12/22 03:36:54;;;;;;;63.20;24.38;;;1.10;99.90;;;;;;5036817;28;20048;-60
2021/12/22 03:39:22;;;;;;;69.95;24.42;;;1.10;99.90;;;;;;5054466;28;20056;-60
2021/12/22 03:41:49;;;;;;;60.75;23.17;;;1.00;99.90;;;;;;5053357;28;20037;-60
2021/12/22 03:44:18;;;;;;;61.90;23.60;;;1.00;99.90;;;;;;5054233;28;20056;-60
2021/12/22 03:46:47;;;;;;;62.65;24.65;;;1.00;99.90;;;;;;5054364;28;20044;-61
2021/12/22 03:49:15;;;;;;;66.18;24.30;;;1.00;99.90;;;;;;5054278;28;20037;-60
2021/12/22 03:51:43;;;;;;;54.80;22.63;;;1.00;99.90;;;;;;5054539;28;20056;-60
2021/12/22 03:54:12;;;;;;;64.75;23.35;;;1.00;99.90;;;;;;5054238;28;20056;-59
2021/12/22 03:56:41;;;;;;;59.08;22.85;;;1.00;99.90;;;;;;5054164;28;20037;-60
2021/12/22 03:59:09;;;;;;;53.85;21.13;;;1.00;99.90;;;;;;5054267;28;20045;-60
2021/12/22 04:01:40;;;;;;;58.00;21.05;;;1.00;99.90;;;;;;5052951;28;20049;-60
2021/12/22 04:04:15;;;;;;;47.58;21.23;;;1.00;99.90;;;;;;5054186;28;20041;-59
2021/12/22 04:06:44;;;;;;;65.10;22.40;;;1.00;99.90;;;;;;5069457;28;20436;-60
2021/12/22 04:09:16;;;;;;;50.88;21.13;;;1.10;99.90;;;;;;5054065;28;20056;-60
2021/12/22 04:11:45;;;;;;;56.70;22.20;;;1.00;99.90;;;;;;5054001;28;20048;-62
2021/12/22 04:14:17;;;;;;;56.40;21.08;;;1.10;99.90;;;;;;5052472;28;20297;-63
2021/12/22 04:16:45;;;;;;;51.50;20.55;;;1.00;99.90;;;;;;5053507;28;20052;-66
2021/12/22 04:19:13;;;;;;;43.45;19.65;;;1.00;99.90;;;;;;5053815;28;20052;-64
2021/12/22 04:21:41;;;;;;;44.42;19.23;;;1.00;99.90;;;;;;5052374;28;20045;-65
2021/12/22 04:24:08;;;;;;;43.65;17.33;;;1.00;99.90;;;;;;5053610;28;20048;-66
2021/12/22 04:26:36;;;;;;;45.55;16.38;;;1.00;99.90;;;;;;5053299;28;20052;-66
2021/12/22 04:29:04;;;;;;;42.08;17.42;;;1.00;99.90;;;;;;5053290;28;20040;-63
2021/12/22 04:31:32;;;;;;;60.20;19.60;;;1.00;99.90;;;;;;5052863;28;20052;-68
2021/12/22 04:34:01;;;;;;;47.28;18.75;;;0.90;99.90;;;;;;5053288;28;20052;-65
2021/12/22 04:36:29;;;;;;;50.10;17.48;;;1.00;99.90;;;;;;5053620;28;20167;-63
2021/12/22 04:38:59;;;;;;;47.53;16.95;;;1.00;99.90;;;;;;5052966;28;20048;-63
2021/12/22 04:41:27;;;;;;;;;;;1.00;99.90;;;;;;5053750;28;20045;-63
2021/12/22 04:43:55;;;;;;;44.65;17.27;;;1.00;99.90;;;;;;5051774;28;20356;-66
2021/12/22 04:46:23;;;;;;;47.38;16.75;;;1.00;99.90;;;;;;5053258;28;20041;-67
2021/12/22 04:48:54;;;;;;;40.10;18.23;;;1.00;99.90;;;;;;5053177;28;20049;-63
2021/12/22 04:51:27;;;;;;;43.58;15.65;;;1.00;99.90;;;;;;5053153;28;20041;-60
2021/12/22 04:54:17;;;;;;;48.70;17.90;;;1.00;99.90;;;;;;5052999;28;20048;-66
2021/12/22 04:56:45;;;;;;;45.88;17.63;;;1.00;99.90;;;;;;5053073;28;20041;-65
2021/12/22 04:59:13;;;;;;;50.63;17.77;;;1.00;99.90;;;;;;5052986;28;20499;-66
2021/12/22 05:01:40;;;;;;;42.63;17.83;;;1.00;99.90;;;;;;5053001;28;20052;-63
2021/12/22 05:04:08;;;;;;;47.20;19.65;;;1.00;99.90;;;;;;5052859;28;20412;-61
2021/12/22 05:06:36;;;;;;;48.13;18.17;;;1.00;99.90;;;;;;5052853;28;20065;-63
2021/12/22 05:09:06;;;;;;;51.38;17.92;;;1.00;99.90;;;;;;5052727;28;20052;-64
2021/12/22 05:11:35;;;;;;;46.28;17.23;;;1.00;99.90;;;;;;5052817;28;20037;-62
2021/12/22 05:14:04;;;;;;;51.13;18.58;;;1.00;99.90;;;;;;5052627;28;20052;-64
2021/12/22 05:16:44;;;;;;;47.67;16.90;;;0.90;99.90;;;;;;5053119;28;20044;-65
2021/12/22 05:19:15;;;;;;;49.15;17.75;;;1.00;99.90;;;;;;5034834;28;20053;-63
2021/12/22 05:21:44;;;;;;;41.53;15.55;;;0.90;99.90;;;;;;5052706;28;20056;-66
2021/12/22 05:24:12;;;;;;;40.30;16.02;;;0.90;99.90;;;;;;5052514;28;20047;-65
2021/12/22 05:26:39;;;;;;;49.22;15.77;;;0.90;99.90;;;;;;5051229;28;20060;-65
2021/12/22 05:29:07;;;;;;;36.10;15.32;;;0.90;99.90;;;;;;5052586;28;20056;-65
2021/12/22 05:31:35;;;;;;;48.53;16.70;;;0.90;99.90;;;;;;5052321;28;20053;-63
2021/12/22 05:34:03;;;;;;;40.92;15.48;;;1.00;99.90;;;;;;5052286;28;20049;-61
2021/12/22 05:36:32;;;;;;;38.88;14.70;;;1.00;99.90;;;;;;5052542;28;20049;-62
2021/12/22 05:39:00;;;;;;;41.00;14.98;;;1.00;99.90;;;;;;5051252;28;20480;-60
2021/12/22 05:41:28;;;;;;;40.63;15.50;;;1.00;99.90;;;;;;5052106;28;20481;-60
2021/12/22 05:43:56;;;;;;;40.35;14.52;;;1.00;99.90;;;;;;5051844;28;20052;-59
2021/12/22 05:46:23;;;;;;;49.13;16.38;;;1.00;99.90;;;;;;5052195;28;20053;-62
2021/12/22 05:48:53;;;;;;;40.15;15.13;;;1.00;99.90;;;;;;5045230;28;20415;-59
2021/12/22 05:51:22;;;;;;;40.13;14.48;;;1.00;99.90;;;;;;5048556;28;20045;-60
2021/12/22 05:53:52;;;;;;;40.33;14.38;;;1.00;99.90;;;;;;5048373;28;20480;-63
2021/12/22 05:56:20;;;;;;;40.65;14.98;;;1.00;99.90;;;;;;5048207;28;20048;-61
2021/12/22 05:58:48;;;;;;;43.53;14.57;;;1.00;99.90;;;;;;5076491;28;20503;-61
2021/12/22 06:01:16;;;;;;;38.20;14.27;;;1.00;99.90;;;;;;5087663;28;20040;-60
2021/12/22 06:03:46;;;;;;;42.63;14.93;;;1.00;99.90;;;;;;5054359;28;20044;-61
2021/12/22 06:06:14;;;;;;;45.55;15.15;;;1.00;99.90;;;;;;5065279;28;20044;-60
2021/12/22 06:08:42;;;;;;;46.88;15.27;;;1.00;99.90;;;;;;5078975;28;20060;-59
2021/12/22 06:11:10;;;;;;;49.23;16.03;;;1.10;99.90;;;;;;5088784;28;20047;-59
2021/12/22 06:13:38;;;;;;;44.95;15.07;;;1.10;99.90;;;;;;5088512;28;20514;-60
2021/12/22 06:16:06;;;;;;;47.78;16.75;;;1.10;99.90;;;;;;5088765;28;20055;-62
2021/12/22 06:18:41;;;;;;;39.78;14.55;;;1.10;99.90;;;;;;5044438;28;20056;-59
2021/12/22 06:21:10;;;;;;;46.85;16.20;;;1.10;99.90;;;;;;5048447;28;20048;-61
2021/12/22 06:23:39;;;;;;;46.15;15.98;;;1.10;99.90;;;;;;5078973;28;20052;-61
2021/12/22 06:26:07;;;;;;;44.40;16.83;;;1.10;99.90;;;;;;5087089;28;20044;-60
2021/12/22 06:28:35;;;;;;;50.35;15.55;;;1.10;99.90;;;;;;5087914;28;20048;-62
2021/12/22 06:31:03;;;;;;;42.60;16.77;;;1.10;99.90;;;;;;5087271;28;20108;-59
2021/12/22 06:33:31;;;;;;;54.25;17.90;;;1.10;99.90;;;;;;5066322;28;20050;-62
2021/12/22 06:35:59;;;;;;;41.28;16.70;;;1.10;99.90;;;;;;5043268;28;20071;-60
2021/12/22 06:38:30;;;;;;;47.75;17.25;;;1.10;99.90;;;;;;5068812;28;20201;-59
2021/12/22 06:40:59;;;;;;;45.85;16.52;;;1.00;99.90;;;;;;5085144;28;20052;-60
2021/12/22 06:43:26;;;;;;;38.15;16.30;;;1.00;99.90;;;;;;5083026;28;20036;-60
2021/12/22 06:45:57;;;;;;;43.42;15.77;;;1.00;99.90;;;;;;5084266;28;20130;-60
2021/12/22 06:48:25;;;;;;;49.58;15.55;;;1.00;99.90;;;;;;5068045;28;20045;-59
2021/12/22 06:50:56;;;;;;;45.10;14.57;;;1.00;99.90;;;;;;5047565;28;20053;-60
2021/12/22 06:53:24;;;;;;;46.00;15.15;;;1.00;99.90;;;;;;5076752;28;20051;-60
2021/12/22 06:55:55;;;;;;;47.50;16.90;;;1.00;99.90;;;;;;5091471;28;20048;-58
2021/12/22 06:58:23;;;;;;;47.97;16.58;;;1.00;99.90;;;;;;5088592;28;20055;-62
2021/12/22 07:00:52;;;;;;;36.83;15.60;;;1.00;99.90;;;;;;5087431;28;20051;-61
2021/12/22 07:03:26;;;;;;;49.90;15.95;;;1.00;99.90;;;;;;5076283;28;20056;-60
2021/12/22 07:06:03;;;;;;;47.40;16.02;;;1.00;99.90;;;;;;5047165;28;20207;-61
2021/12/22 07:08:31;;;;;;;42.45;16.25;;;1.00;99.90;;;;;;5076163;28;20055;-60
2021/12/22 07:10:59;;;;;;;42.35;15.60;;;1.00;99.90;;;;;;5092183;28;20044;-63
2021/12/22 07:13:27;;;;;;;52.50;16.27;;;1.00;99.90;;;;;;5090424;28;20051;-60
2021/12/22 07:15:55;;;;;;;42.63;14.45;;;0.90;99.90;;;;;;5091941;28;20051;-61
2021/12/22 07:18:23;;;;;;;46.80;15.27;;;0.90;99.90;;;;;;5085105;28;20044;-61
2021/12/22 07:20:51;;;;;;;43.88;13.82;;;0.90;99.90;;;;;;5071427;28;20048;-61
2021/12/22 07:23:22;;;;;;;37.22;13.15;;;0.90;99.90;;;;;;5084163;28;20055;-61
2021/12/22 07:25:52;;;;;;;41.30;15.05;;;0.90;99.90;;;;;;5090354;28;20048;-61
2021/12/22 07:28:23;;;;;;;42.53;15.27;;;0.90;99.90;;;;;;5088222;28;20044;-60
2021/12/22 07:30:51;;;;;;;38.15;13.88;;;0.90;99.90;;;;;;5087730;28;20051;-61
2021/12/22 07:33:20;;;;;;;42.80;14.38;;;1.00;99.90;;;;;;5086084;28;20499;-61
2021/12/22 07:35:55;;;;;;;41.45;14.85;;;1.00;99.90;;;;;;5069707;28;20052;-63
2021/12/22 07:38:41;;;;;;;41.45;13.10;;;1.00;99.90;;;;;;5083190;28;20040;-61
2021/12/22 07:41:09;;;;;;;38.30;13.35;;;1.00;99.90;;;;;;5091150;28;20510;-59
2021/12/22 07:43:37;;;;;;;42.30;14.10;;;1.00;99.90;;;;;;5090611;28;20487;-60
2021/12/22 07:46:08;;;;;;;43.08;14.70;;;1.00;99.90;;;;;;5088701;28;20054;-61
2021/12/22 07:48:40;;;;;;;40.80;13.32;;;1.00;99.90;;;;;;5075347;28;20480;-66
2021/12/22 07:51:10;;;;;;;33.90;13.65;;;1.10;99.90;;;;;;5048367;28;20072;-62
2021/12/22 07:53:38;;;;;;;43.85;14.95;;;1.10;99.90;;;;;;5079290;28;20044;-61
2021/12/22 07:56:07;;;;;;;55.47;17.33;;;1.00;99.90;;;;;;5090173;28;20040;-67
2021/12/22 07:58:35;;;;;;;33.67;13.60;;;1.00;99.90;;;;;;5087216;28;20040;-64
2021/12/22 08:01:03;;;;;;;32.92;12.75;;;1.00;99.90;;;;;;5088286;28;20411;-64
2021/12/22 08:03:34;;;;;;;48.20;14.65;;;1.00;99.90;;;;;;5077574;28;20045;-61
2021/12/22 08:06:18;;;;;;;35.75;13.50;;;1.10;99.90;;;;;;5062324;28;20052;-63
2021/12/22 08:08:49;;;;;;;40.67;13.60;;;1.10;99.90;;;;;;5078239;28;20047;-62
2021/12/22 08:11:20;;;;;;;43.78;14.05;;;1.10;99.90;;;;;;5072817;28;20048;-60
2021/12/22 08:13:51;;;;;;;34.92;13.35;;;1.10;99.90;;;;;;5090592;28;20055;-66
2021/12/22 08:16:20;;;;;;;37.10;14.27;;;1.20;99.90;;;;;;5089762;28;20040;-66
2021/12/22 08:18:48;;;;;;;37.00;14.65;;;1.20;99.90;;;;;;5083895;28;20036;-66
2021/12/22 08:21:18;;;;;;;41.60;15.10;;;1.20;99.90;;;;;;5070887;28;20048;-63
2021/12/22 08:23:46;;;;;;;40.67;14.55;;;1.20;99.90;;;;;;5085923;28;20052;-61
2021/12/22 08:26:17;;;;;;;34.13;13.15;;;1.20;99.90;;;;;;5090186;28;20052;-64
2021/12/22 08:28:49;;;;;;;35.28;12.48;;;1.20;99.90;;;;;;5090111;28;20397;-61
2021/12/22 08:31:17;;;;;;;36.78;13.63;;;1.30;99.90;;;;;;5090724;28;20365;-61
2021/12/22 08:33:48;;;;;;;44.38;13.95;;;1.30;99.90;;;;;;5084805;28;20045;-61
2021/12/22 08:39:06;;;;;;;36.78;13.90;;;1.30;99.90;;;;;;5085064;28;20059;-60
2021/12/22 08:41:40;;;;;;;45.40;13.30;;;1.30;99.90;;;;;;5090104;28;20055;-59
2021/12/22 08:44:10;;;;;;;37.20;13.18;;;1.30;99.90;;;;;;5089815;28;20040;-61
2021/12/22 08:46:39;;;;;;;;;;;1.40;99.90;;;;;;5090343;28;20407;-60
2021/12/22 08:49:08;;;;;;;36.30;13.23;;;1.40;99.90;;;;;;5077107;28;20335;-61
2021/12/22 08:51:38;;;;;;;;;;;1.40;99.90;;;;;;5050462;28;20048;-60
2021/12/22 08:54:06;;;;;;;36.60;13.75;;;1.40;99.90;;;;;;5085758;28;19927;-60
2021/12/22 08:56:37;;;;;;;37.47;13.32;;;1.40;99.90;;;;;;5089709;28;20494;-59
2021/12/22 08:59:07;;;;;;;33.17;13.07;;;1.50;99.90;;;;;;5088014;28;20052;-60
2021/12/22 09:01:36;;;;;;;42.47;14.30;;;1.50;99.90;;;;;;5089665;28;20403;-60
2021/12/22 09:04:10;;;;;;;33.05;13.63;;;1.50;99.90;;;;;;5079015;28;20036;-60
2021/12/22 09:06:39;;;;;;;34.25;15.05;;;1.50;99.90;;;;;;5049327;28;20057;-59
2021/12/22 09:09:09;;;;;;;42.88;15.07;;;1.50;99.90;;;;;;5081591;28;20051;-59
2021/12/22 09:11:38;;;;;;;36.00;14.57;;;1.50;99.90;;;;;;5088382;28;20415;-60
2021/12/22 09:14:08;;;;;;;40.42;13.43;;;1.60;99.90;;;;;;5089334;28;20048;-61
2021/12/22 09:16:37;;;;;;;38.08;13.40;;;1.60;99.90;;;;;;5088403;28;20082;-60
2021/12/22 09:19:09;;;;;;;36.85;13.45;;;1.60;99.90;;;;;;5082117;28;20392;-61
2021/12/22 09:21:38;;;;;;;29.90;14.18;;;1.70;99.90;;;;;;5048067;28;20858;-60
2021/12/22 09:24:07;;;;;;;36.42;13.65;;;1.80;99.90;;;;;;5085247;28;20449;-61
2021/12/22 09:26:38;;;;;;;44.80;15.27;;;1.80;99.90;;;;;;5088234;28;20518;-61
2021/12/22 09:29:08;;;;;;;41.33;14.23;;;1.90;99.90;;;;;;5088918;28;20060;-61
2021/12/22 09:31:38;;;;;;;33.10;13.80;;;1.90;99.90;;;;;;5089037;28;20040;-61
2021/12/22 09:34:07;;;;;;;41.77;14.93;;;2.00;99.90;;;;;;5081965;28;20056;-60
2021/12/22 09:36:35;;;;;;;39.57;13.67;;;2.00;99.90;;;;;;5047987;28;20320;-62
2021/12/22 09:39:04;;;;;;;36.28;13.98;;;2.00;99.90;;;;;;5080284;28;20055;-63
2021/12/22 09:41:33;;;;;;;;;;;2.00;99.90;;;;;;5088243;28;20040;-65
2021/12/22 09:44:01;;;;;;;32.25;13.65;;;2.00;99.90;;;;;;5087131;28;20363;-66
2021/12/22 09:46:29;;;;;;;36.20;13.90;;;2.10;99.90;;;;;;5087451;28;20514;-63
2021/12/22 09:49:08;;;;;;;41.80;14.98;;;2.10;99.90;;;;;;5086750;28;20051;-65
2021/12/22 09:54:07;;;;;;;38.97;15.38;;;2.10;99.90;;;;;;5082464;28;20044;-61
2021/12/22 09:56:39;;;;;;;35.65;14.20;;;2.10;99.90;;;;;;5088478;28;20055;-64
2021/12/22 09:59:10;;;;;;;42.33;14.95;;;2.10;99.90;;;;;;5087121;28;20467;-62
2021/12/22 10:01:38;;;;;;;37.33;13.80;;;2.10;99.90;;;;;;5088667;28;20048;-62
2021/12/22 10:04:06;;;;;;;30.63;14.85;;;2.10;99.90;;;;;;5085244;28;20044;-60
2021/12/22 10:06:35;;;;;;;35.70;14.52;;;2.10;99.90;;;;;;5048303;28;20064;-59
2021/12/22 10:09:05;;;;;;;37.05;14.40;;;2.10;99.90;;;;;;5078224;28;20055;-60
2021/12/22 10:11:44;;;;;;;39.75;14.63;;;2.10;99.90;;;;;;5088704;28;20055;-60
2021/12/22 10:14:27;;;;;;;30.90;14.13;;;2.20;99.90;;;;;;5088143;28;20475;-57
2021/12/22 10:16:56;;;;;;;32.15;12.50;;;2.10;99.90;;;;;;5087998;28;20044;-66
2021/12/22 10:19:25;;;;;;;37.60;14.35;;;2.10;99.90;;;;;;5084997;28;20055;-66
2021/12/22 10:21:59;;;;;;;33.75;11.68;;;2.10;99.90;;;;;;5066894;28;20047;-62
2021/12/22 10:24:37;;;;;;;41.05;14.40;;;2.10;99.90;;;;;;5067063;28;20040;-62
2021/12/22 10:27:12;;;;;;;34.53;13.90;;;2.10;99.90;;;;;;5051080;28;20051;-61
2021/12/22 10:29:39;;;;;;;37.90;14.52;;;2.10;99.90;;;;;;5068449;28;20259;-65
2021/12/22 10:32:10;;;;;;;36.78;13.23;;;2.10;99.90;;;;;;5069555;28;20052;-63
2021/12/22 10:35:05;;;;;;;36.13;12.90;;;2.10;99.90;;;;;;5081015;28;20041;-63
2021/12/22 10:37:37;;;;;;;35.60;14.43;;;2.10;99.90;;;;;;5054383;28;20422;-61
2021/12/22 10:40:30;;;;;;;45.47;14.50;;;2.10;99.90;;;;;;5088250;28;20048;-61
2021/12/22 10:43:00;;;;;;;32.40;14.00;;;2.10;99.90;;;;;;5087944;28;20059;-62
2021/12/22 10:45:31;;;;;;;31.08;13.82;;;2.20;99.90;;;;;;5088178;28;20302;-60
2021/12/22 10:50:55;;;;;;;;;;;2.20;99.90;;;;;;5069066;28;20059;-68
2021/12/22 10:53:24;;;;;;;34.53;12.50;;;2.20;99.90;;;;;;5079510;28;19927;-67
2021/12/22 10:56:02;;;;;;;35.53;13.77;;;2.20;99.90;;;;;;5086774;28;20055;-68
2021/12/22 10:58:35;;;;;;;33.80;13.55;;;2.20;99.90;;;;;;5087661;28;20051;-68
2021/12/22 11:01:13;;;;;;;36.42;14.45;;;2.20;99.90;;;;;;5088089;28;20044;-67
2021/12/22 11:03:50;;;;;;;34.97;13.88;;;2.30;99.90;;;;;;5087609;28;20068;-66
2021/12/22 11:06:27;;;;;;;30.63;12.15;;;2.20;99.90;;;;;;5072006;28;20047;-66
2021/12/22 11:09:17;;;;;;;29.17;10.95;;;2.30;99.90;;;;;;5082622;28;20040;-62
2021/12/22 11:12:03;;;;;;;35.40;13.50;;;2.30;99.90;;;;;;5087836;28;20055;-60
2021/12/22 11:14:51;;;;;;;28.90;13.70;;;2.30;99.90;;;;;;5079731;28;20408;-60
2021/12/22 11:17:22;;;;;;;41.40;13.23;;;2.30;99.90;;;;;;5050520;28;20057;-60
2021/12/22 11:20:04;;;;;;;40.17;13.75;;;2.40;99.90;;;;;;5081382;28;20040;-61
2021/12/22 11:22:52;;;;;;;32.00;12.40;;;2.30;99.90;;;;;;5056303;28;20048;-60
2021/12/22 11:25:21;;;;;;;33.60;12.60;;;2.40;99.90;;;;;;5070996;28;20048;-61
2021/12/22 11:27:51;;;;;;;24.40;11.43;;;2.40;99.90;;;;;;5087790;28;20047;-61
2021/12/22 11:30:22;;;;;;;30.05;12.38;;;2.40;99.90;;;;;;5086791;28;20059;-61
2021/12/22 11:32:50;;;;;;;29.10;13.32;;;2.30;99.90;;;;;;5082265;28;20054;-61
2021/12/22 11:35:19;;;;;;;33.83;12.10;;;2.40;99.90;;;;;;5073313;28;20037;-59
2021/12/22 11:37:47;;;;;;;33.70;12.45;;;2.40;99.90;;;;;;5055232;28;20055;-61
2021/12/22 11:40:17;;;;;;;28.25;11.95;;;2.40;99.90;;;;;;5089634;28;20044;-68
2021/12/22 11:42:54;;;;;;;23.98;10.57;;;2.40;99.90;;;;;;5089197;28;20059;-66
2021/12/22 11:45:25;;;;;;;;;;;2.40;99.90;;;;;;5089155;28;20040;-69
2021/12/22 11:47:58;;;;;;;29.77;11.10;;;2.50;99.90;;;;;;5077352;28;20395;-63
2021/12/22 11:50:46;;;;;;;26.50;11.30;;;2.50;99.90;;;;;;5077119;28;20044;-60
2021/12/22 11:53:21;;;;;;;30.65;11.82;;;2.50;99.90;;;;;;5069258;28;20499;-67
2021/12/22 11:55:51;;;;;;;29.23;10.55;;;2.50;99.90;;;;;;5091271;28;20041;-67
2021/12/22 11:58:34;;;;;;;27.55;9.95;;;2.50;99.90;;;;;;5091037;28;20051;-67
2021/12/22 12:01:12;;;;;;;27.23;10.57;;;2.50;99.90;;;;;;5090852;28;20059;-64
2021/12/22 12:03:44;;;;;;;28.00;11.07;;;2.50;99.90;;;;;;5090692;28;20467;-66
2021/12/22 12:06:13;;;;;;;33.50;12.85;;;2.50;99.90;;;;;;5079090;28;20059;-66
2021/12/22 12:08:51;;;;;;;29.70;10.55;;;2.50;99.90;;;;;;5081643;28;20052;-60
2021/12/22 12:14:36;;;;;;;24.67;10.82;;;2.60;99.90;;;;;;5090668;28;20055;-62
2021/12/22 12:23:24;;;;;;;28.33;10.20;;;2.70;99.90;;;;;;5069230;28;20051;-66
2021/12/22 12:25:53;;;;;;;33.63;11.93;;;2.70;99.90;;;;;;5090438;28;20048;-60
2021/12/22 12:28:22;;;;;;;28.00;11.48;;;2.70;99.90;;;;;;5090371;28;20052;-61
2021/12/22 12:30:51;;;;;;;23.27;10.93;;;2.70;99.90;;;;;;5090301;28;20063;-61
2021/12/22 12:33:28;;;;;;;22.48;9.68;;;2.70;99.90;;;;;;5089932;28;20051;-61
2021/12/22 12:36:12;;;;;;;24.63;9.65;;;2.70;99.90;;;;;;5077237;28;20492;-61
2021/12/22 12:38:40;;;;;;;29.88;10.48;;;2.60;99.90;;;;;;5072331;28;20060;-61
2021/12/22 12:41:17;;;;;;;27.67;10.65;;;2.70;99.90;;;;;;5090240;28;20197;-60
2021/12/22 12:43:52;;;;;;;26.67;11.10;;;2.60;99.90;;;;;;5089923;28;20052;-60
2021/12/22 12:46:35;;;;;;;25.40;10.63;;;2.70;99.90;;;;;;5090282;28;20308;-61
2021/12/22 12:49:03;;;;;;;23.52;10.43;;;2.60;99.90;;;;;;5089369;28;20091;-62
2021/12/22 12:51:49;;;;;;;26.60;10.52;;;2.70;99.90;;;;;;5078209;28;20060;-61
2021/12/22 12:54:21;;;;;;;31.85;11.60;;;2.60;99.90;;;;;;5087861;28;20062;-60
2021/12/22 12:57:12;;;;;;;27.38;11.35;;;2.60;99.90;;;;;;5089671;28;20044;-61
2021/12/22 12:59:49;;;;;;;27.48;11.55;;;2.60;99.90;;;;;;5089881;28;20051;-59
2021/12/22 13:02:32;;;;;;;22.67;11.13;;;2.60;99.90;;;;;;5089644;28;20055;-61
2021/12/22 13:05:11;;;;;;;30.50;12.50;;;2.60;99.90;;;;;;5089844;28;20480;-59
2021/12/22 13:07:40;;;;;;;25.40;10.27;;;2.70;99.90;;;;;;5057465;28;20048;-62
2021/12/22 13:10:21;;;;;;;22.42;9.77;;;2.70;99.90;;;;;;5088569;28;20383;-61
2021/12/22 13:13:12;;;;;;;21.83;9.52;;;2.80;99.90;;;;;;5089287;28;20051;-60
2021/12/22 13:15:46;;;;;;;26.05;10.18;;;2.80;99.90;;;;;;5089391;28;20059;-61
2021/12/22 13:18:20;;;;;;;28.20;9.95;;;2.80;99.90;;;;;;5089150;28;20048;-61
2021/12/22 13:20:49;;;;;;;24.75;10.90;;;2.80;99.90;;;;;;5082922;28;20051;-61
2021/12/22 13:23:22;;;;;;;20.63;8.82;;;2.80;99.90;;;;;;5068896;28;20483;-64
2021/12/22 13:25:52;;;;;;;26.88;10.55;;;2.80;99.90;;;;;;5088098;28;20040;-65
2021/12/22 13:28:24;;;;;;;33.97;10.52;;;2.90;99.90;;;;;;5087840;28;20518;-65
2021/12/22 13:31:00;;;;;;;23.10;9.68;;;2.90;99.90;;;;;;5088088;28;20047;-64
2021/12/22 13:33:35;;;;;;;23.13;9.43;;;2.90;99.90;;;;;;5088760;28;20044;-67